Time;durP1;ratioP1;P1;durP2;ratioP2;P2;SDS_P1;SDS_P2;PMS_P1;PMS_P2;Temp;Humidity;BMP_temperature;BMP_pressure;BME280_temperature;BME280_humidity;BME280_pressure;Samples;Min_cycle;Max_cycle;Signal;HPM_P1;HPM_P2
2022/06/09 00:00:19;;;;;;;;;;;;;;;22.82;48.18;95097.00;10476910;28;1916;-62
2022/06/09 00:05:21;;;;;;;;;;;;;;;22.81;48.18;95090.19;10493223;28;1937;-62
2022/06/09 00:10:24;;;;;;;;;;;;;;;22.80;48.14;95089.41;10477750;28;1805;-63
2022/06/09 00:15:25;;;;;;;;;;;;;;;22.81;48.25;95087.53;10478721;28;2014;-62
2022/06/09 00:20:25;;;;;;;;;;;;;;;22.81;48.22;95084.91;10464162;28;1795;-62
2022/06/09 00:25:26;;;;;;;;;;;;;;;22.81;47.94;95092.84;10478658;28;1806;-64
2022/06/09 00:30:26;;;;;;;;;;;;;;;22.80;48.36;95096.53;10479078;28;1869;-62
2022/06/09 00:35:27;;;;;;;;;;;;;;;22.81;48.06;95092.84;10494857;28;1906;-60
2022/06/09 00:40:27;;;;;;;;;;;;;;;22.80;47.98;95094.69;10442579;28;2133;-60
2022/06/09 00:45:27;;;;;;;;;;;;;;;22.80;48.16;95105.25;10503562;28;2213;-62
2022/06/09 00:50:28;;;;;;;;;;;;;;;22.80;47.96;95107.09;10471958;28;1883;-56
2022/06/09 00:55:30;;;;;;;;;;;;;;;22.79;47.86;95108.22;10474317;28;1998;-62
2022/06/09 01:00:34;;;;;;;;;;;;;;;22.79;47.81;95114.28;10498624;28;1834;-59
2022/06/09 01:05:34;;;;;;;;;;;;;;;22.78;47.91;95104.78;10464581;28;1944;-60
2022/06/09 01:10:35;;;;;;;;;;;;;;;22.79;47.82;95110.84;10494009;28;2217;-63
2022/06/09 01:15:55;;;;;;;;;;;;;;;22.78;47.91;95117.19;10477538;28;1976;-57
2022/06/09 01:21:02;;;;;;;;;;;;;;;22.78;47.82;95117.19;10472156;28;1884;-59
2022/06/09 01:26:13;;;;;;;;;;;;;;;22.77;47.80;95115.66;10500838;28;1932;-59
2022/06/09 01:31:17;;;;;;;;;;;;;;;22.77;47.78;95119.09;10496140;28;1919;-60
2022/06/09 01:36:44;;;;;;;;;;;;;;;22.77;47.86;95116.44;10486973;28;1956;-60
2022/06/09 01:41:48;;;;;;;;;;;;;;;22.77;47.47;95115.66;10490778;28;1860;-65
2022/06/09 01:46:48;;;;;;;;;;;;;;;22.76;47.97;95120.16;10493082;28;1932;-61
2022/06/09 01:51:49;;;;;;;;;;;;;;;22.76;47.48;95119.38;10493284;28;1826;-63
2022/06/09 01:56:53;;;;;;;;;;;;;;;22.76;48.02;95117.50;10490089;28;2034;-63
2022/06/09 02:02:12;;;;;;;;;;;;;;;22.77;47.74;95120.94;10504292;28;2025;-62
2022/06/09 02:07:12;;;;;;;;;;;;;;;22.75;47.70;95118.56;10487582;28;1888;-57
2022/06/09 02:12:14;;;;;;;;;;;;;;;22.77;47.73;95119.09;10499086;28;2004;-60
2022/06/09 02:17:16;;;;;;;;;;;;;;;22.75;47.80;95118.56;10486199;28;1909;-61
2022/06/09 02:22:16;;;;;;;;;;;;;;;22.75;47.73;95117.81;10472666;28;1853;-61
2022/06/09 02:27:16;;;;;;;;;;;;;;;22.75;47.62;95120.47;10470542;28;1950;-56
2022/06/09 02:32:17;;;;;;;;;;;;;;;22.75;47.60;95123.09;10473356;28;1852;-62
2022/06/09 02:37:17;;;;;;;;;;;;;;;22.75;47.45;95129.16;10487858;28;1997;-61
2022/06/09 02:42:18;;;;;;;;;;;;;;;22.74;47.68;95124.16;10469619;28;1942;-62
2022/06/09 02:47:18;;;;;;;;;;;;;;;22.74;47.70;95121.53;10468373;28;1829;-61
2022/06/09 02:52:18;;;;;;;;;;;;;;;22.73;47.80;95120.75;10487192;28;2373;-60
2022/06/09 02:57:19;;;;;;;;;;;;;;;22.73;47.40;95122.63;10466111;28;1906;-62
2022/06/09 03:02:19;;;;;;;;;;;;;;;22.73;47.66;95128.66;10497727;28;1928;-61
2022/06/09 03:07:20;;;;;;;;;;;;;;;22.73;47.68;95131.31;10481247;28;2054;-60
2022/06/09 03:12:21;;;;;;;;;;;;;;;22.72;47.74;95135.06;10488222;28;1904;-60
2022/06/09 03:17:23;;;;;;;;;;;;;;;22.72;47.68;95142.19;10481782;28;2000;-59
2022/06/09 03:22:23;;;;;;;;;;;;;;;22.73;47.84;95141.13;10494470;28;1952;-57
2022/06/09 03:27:24;;;;;;;;;;;;;;;22.73;47.56;95143.75;10462604;28;1928;-59
2022/06/09 03:32:25;;;;;;;;;;;;;;;22.72;47.78;95147.47;10458256;28;1914;-58
2022/06/09 03:37:25;;;;;;;;;;;;;;;22.72;47.42;95142.19;10475924;28;2047;-60
2022/06/09 03:42:25;;;;;;;;;;;;;;;22.71;47.81;95146.69;10494535;28;1983;-60
2022/06/09 03:47:25;;;;;;;;;;;;;;;22.73;47.63;95151.69;10495493;28;1958;-61
2022/06/09 03:52:26;;;;;;;;;;;;;;;22.72;47.46;95150.91;10508364;28;1936;-61
2022/06/09 03:57:26;;;;;;;;;;;;;;;22.73;47.84;95151.69;10495992;28;1967;-62
2022/06/09 04:02:27;;;;;;;;;;;;;;;22.72;47.70;95160.69;10506192;28;2175;-62
2022/06/09 04:07:28;;;;;;;;;;;;;;;22.71;47.68;95165.19;10502116;28;1929;-61
2022/06/09 04:12:29;;;;;;;;;;;;;;;22.71;47.34;95169.72;10488571;28;1923;-59
2022/06/09 04:17:30;;;;;;;;;;;;;;;22.73;47.46;95170.19;10474767;28;2400;-64
2022/06/09 04:22:40;;;;;;;;;;;;;;;22.72;47.58;95176.53;10478412;28;1901;-64
2022/06/09 04:27:40;;;;;;;;;;;;;;;22.71;47.64;95181.03;10462206;28;1905;-60
2022/06/09 04:32:41;;;;;;;;;;;;;;;22.72;47.34;95195.03;10473324;28;1998;-60
2022/06/09 04:43:01;;;;;;;;;;;;;;;22.71;47.56;95201.41;10468814;28;2008;-59
2022/06/09 04:48:01;;;;;;;;;;;;;;;22.71;47.43;95207.44;10475841;28;1929;-62
2022/06/09 04:53:02;;;;;;;;;;;;;;;22.70;47.50;95207.75;10473565;28;1931;-60
2022/06/09 04:58:02;;;;;;;;;;;;;;;22.71;47.16;95217.25;10473151;28;1906;-60
2022/06/09 05:03:03;;;;;;;;;;;;;;;22.70;47.34;95216.47;10471378;28;1816;-62
2022/06/09 05:08:04;;;;;;;;;;;;;;;22.70;47.47;95215.69;10452785;28;2163;-62
2022/06/09 05:13:06;;;;;;;;;;;;;;;22.67;47.41;95212.56;10456392;28;1993;-62
2022/06/09 05:18:06;;;;;;;;;;;;;;;22.68;47.41;95218.63;10480214;28;2240;-59
2022/06/09 05:23:07;;;;;;;;;;;;;;;22.70;47.31;95226.25;10479468;28;2361;-59
2022/06/09 05:28:08;;;;;;;;;;;;;;;22.70;47.40;95237.63;10493227;28;2365;-63
2022/06/09 05:33:08;;;;;;;;;;;;;;;22.70;47.30;95234.97;10484480;28;2305;-63
2022/06/09 05:48:48;;;;;;;;;;;;;;;22.72;47.17;95243.38;10486661;28;1899;-63
2022/06/09 05:53:48;;;;;;;;;;;;;;;22.72;47.50;95253.94;10488043;28;1965;-61
2022/06/09 05:58:49;;;;;;;;;;;;;;;22.72;47.29;95261.09;10462845;28;1848;-59
2022/06/09 06:03:49;;;;;;;;;;;;;;;22.71;47.42;95259.53;10453903;28;2090;-60
2022/06/09 06:08:49;;;;;;;;;;;;;;;22.71;47.35;95280.66;10455556;28;1595;-58
2022/06/09 06:13:51;;;;;;;;;;;;;;;22.71;47.33;95283.31;10475976;28;1906;-59
2022/06/09 06:18:51;;;;;;;;;;;;;;;22.70;47.16;95279.09;10471460;28;1776;-59
2022/06/09 06:23:52;;;;;;;;;;;;;;;22.70;47.47;95285.16;10473036;28;1827;-63
2022/06/09 06:28:52;;;;;;;;;;;;;;;22.71;47.05;95288.59;10464957;28;1960;-63
2022/06/09 06:33:53;;;;;;;;;;;;;;;22.71;47.28;95293.88;10474559;28;1957;-63
2022/06/09 06:38:53;;;;;;;;;;;;;;;22.70;46.99;95301.03;10464162;28;1945;-63
2022/06/09 06:43:53;;;;;;;;;;;;;;;22.71;47.36;95307.09;10473894;28;1865;-63
2022/06/09 06:48:55;;;;;;;;;;;;;;;22.71;47.09;95312.38;10455678;28;1903;-64
2022/06/09 06:53:56;;;;;;;;;;;;;;;22.70;47.02;95318.72;10484011;28;1910;-61
2022/06/09 06:58:57;;;;;;;;;;;;;;;22.71;46.97;95317.66;10473412;28;1856;-62
2022/06/09 07:03:57;;;;;;;;;;;;;;;22.71;46.98;95315.03;10443393;28;1828;-62
2022/06/09 07:08:57;;;;;;;;;;;;;;;22.72;47.19;95321.84;10475766;28;1752;-65
2022/06/09 07:13:58;;;;;;;;;;;;;;;22.73;47.28;95315.50;10468670;28;1959;-64
2022/06/09 07:18:58;;;;;;;;;;;;;;;22.72;47.06;95314.72;10485699;28;1766;-67
2022/06/09 07:23:59;;;;;;;;;;;;;;;22.73;46.97;95310.97;10497850;28;1820;-59
2022/06/09 07:28:59;;;;;;;;;;;;;;;22.73;46.85;95320.78;10459312;28;1828;-62
2022/06/09 07:34:00;;;;;;;;;;;;;;;22.73;46.71;95318.16;10483474;28;1937;-64
2022/06/09 07:39:01;;;;;;;;;;;;;;;22.73;47.03;95315.50;10468157;28;1944;-63
2022/06/09 07:44:02;;;;;;;;;;;;;;;22.73;46.79;95320.78;10477940;28;1812;-65
2022/06/09 07:49:03;;;;;;;;;;;;;;;22.72;47.07;95325.28;10470095;28;1865;-60
2022/06/09 07:54:04;;;;;;;;;;;;;;;22.72;46.99;95335.84;10480436;28;1910;-62
2022/06/09 07:59:08;;;;;;;;;;;;;;;22.71;46.63;95344.84;10495235;28;1827;-63
2022/06/09 08:04:09;;;;;;;;;;;;;;;22.69;46.28;95356.81;10473671;28;1837;-62
2022/06/09 08:09:10;;;;;;;;;;;;;;;22.69;46.79;95367.38;10454104;28;1861;-62
2022/06/09 08:14:11;;;;;;;;;;;;;;;22.67;46.49;95368.44;10477449;28;1921;-61
2022/06/09 08:19:11;;;;;;;;;;;;;;;22.67;46.66;95376.38;10461578;28;1863;-64
2022/06/09 08:24:11;;;;;;;;;;;;;;;22.67;46.57;95375.56;10477181;28;1825;-59
2022/06/09 08:29:12;;;;;;;;;;;;;;;22.67;46.38;95384.28;10465311;28;1760;-62
2022/06/09 08:34:13;;;;;;;;;;;;;;;22.69;46.35;95391.16;10478516;28;1984;-62
2022/06/09 08:39:13;;;;;;;;;;;;;;;22.69;46.78;95393.78;10474030;28;2042;-62
2022/06/09 08:44:24;;;;;;;;;;;;;;;22.69;46.37;95407.00;10479385;28;1999;-61
2022/06/09 08:49:24;;;;;;;;;;;;;;;22.70;46.42;95403.28;10484611;28;2271;-63
2022/06/09 08:54:27;;;;;;;;;;;;;;;22.68;46.42;95408.84;10462254;28;2003;-59
2022/06/09 08:59:28;;;;;;;;;;;;;;;22.67;46.65;95426.56;10466590;28;1978;-61
2022/06/09 09:04:34;;;;;;;;;;;;;;;22.68;46.41;95427.34;10474861;28;2125;-61
2022/06/09 09:09:35;;;;;;;;;;;;;;;22.68;46.44;95430.00;10465206;28;1864;-63
2022/06/09 09:14:49;;;;;;;;;;;;;;;22.67;46.45;95434.50;10449870;28;2112;-61
2022/06/09 09:19:55;;;;;;;;;;;;;;;22.67;46.64;95429.22;10453686;28;1897;-63
2022/06/09 09:25:03;;;;;;;;;;;;;;;22.70;46.29;95437.63;10456367;28;1845;-61
2022/06/09 09:30:25;;;;;;;;;;;;;;;22.67;46.42;95437.13;10488266;28;1797;-59
2022/06/09 09:35:31;;;;;;;;;;;;;;;22.68;46.42;95445.84;10477347;28;1973;-59
2022/06/09 09:40:33;;;;;;;;;;;;;;;22.67;46.11;95439.78;10466065;28;1871;-60
2022/06/09 09:45:41;;;;;;;;;;;;;;;22.69;46.32;95441.34;10472793;28;1754;-62
2022/06/09 09:50:53;;;;;;;;;;;;;;;22.70;46.33;95442.91;10487584;28;1695;-63
2022/06/09 09:55:55;;;;;;;;;;;;;;;22.70;46.64;95448.19;10454533;28;1902;-64
2022/06/09 10:00:59;;;;;;;;;;;;;;;22.71;46.70;95449.78;10455489;28;1794;-61
2022/06/09 10:16:42;;;;;;;;;;;;;;;22.67;46.39;95491.81;10467915;28;1906;-60
2022/06/09 10:21:57;;;;;;;;;;;;;;;22.65;46.27;95486.84;10451900;28;1808;-63
2022/06/09 10:26:57;;;;;;;;;;;;;;;22.65;46.34;95484.19;10466530;28;1899;-61
2022/06/09 10:32:02;;;;;;;;;;;;;;;22.65;46.38;95488.69;10460355;28;1689;-63
2022/06/09 10:37:20;;;;;;;;;;;;;;;22.65;46.13;95489.47;10483270;28;1973;-62
2022/06/09 10:42:20;;;;;;;;;;;;;;;22.65;46.18;95480.78;10457258;28;2165;-62
2022/06/09 10:58:15;;;;;;;;;;;;;;;22.64;46.03;95495.06;10487953;28;1923;-62
2022/06/09 11:03:17;;;;;;;;;;;;;;;22.64;46.25;95493.22;10480490;28;1839;-60
2022/06/09 11:08:22;;;;;;;;;;;;;;;22.65;46.51;95491.34;10473732;28;1786;-62
2022/06/09 11:13:36;;;;;;;;;;;;;;;22.64;46.36;95487.94;10456505;28;1876;-61
2022/06/09 11:18:39;;;;;;;;;;;;;;;22.65;46.33;95486.84;10481600;28;1905;-59
2022/06/09 11:24:01;;;;;;;;;;;;;;;22.65;46.11;95489.47;10476615;28;2142;-62
2022/06/09 11:29:17;;;;;;;;;;;;;;;22.67;46.47;95482.06;10456422;28;1950;-62
2022/06/09 11:34:24;;;;;;;;;;;;;;;22.69;46.71;95478.34;10460790;28;1891;-62
2022/06/09 11:39:33;;;;;;;;;;;;;;;22.70;46.31;95485.19;10455860;28;2126;-62
2022/06/09 11:44:38;;;;;;;;;;;;;;;22.70;46.64;95483.31;10481400;28;1791;-62
2022/06/09 11:49:39;;;;;;;;;;;;;;;22.70;46.45;95472.75;10457589;28;1784;-61
2022/06/09 11:54:44;;;;;;;;;;;;;;;22.70;46.70;95475.41;10471288;28;1981;-59
2022/06/09 12:00:08;;;;;;;;;;;;;;;22.69;46.63;95483.63;10465903;28;1847;-62
2022/06/09 12:05:08;;;;;;;;;;;;;;;22.67;46.30;95479.41;10433933;28;1784;-62
2022/06/09 12:10:17;;;;;;;;;;;;;;;22.68;46.59;95496.06;10461880;28;1879;-60
2022/06/09 12:15:22;;;;;;;;;;;;;;;22.71;46.62;95499.97;10474392;28;1975;-63
2022/06/09 12:20:29;;;;;;;;;;;;;;;22.67;46.30;95502.41;10454295;28;2012;-63
2022/06/09 12:25:33;;;;;;;;;;;;;;;22.65;46.32;95510.63;10457399;28;1960;-62
2022/06/09 12:30:35;;;;;;;;;;;;;;;22.65;46.11;95510.63;10475188;28;1770;-61
2022/06/09 12:35:39;;;;;;;;;;;;;;;22.67;46.38;95517.50;10461263;28;1901;-61
2022/06/09 12:40:44;;;;;;;;;;;;;;;22.67;46.20;95526.19;10444830;28;2397;-63
2022/06/09 12:45:45;;;;;;;;;;;;;;;22.67;46.53;95526.97;10449421;28;2106;-62
2022/06/09 12:50:48;;;;;;;;;;;;;;;22.70;46.19;95527.47;10456711;28;1834;-60
2022/06/09 12:55:56;;;;;;;;;;;;;;;22.70;46.63;95528.25;10486868;28;1975;-61
2022/06/09 13:00:57;;;;;;;;;;;;;;;22.71;46.47;95544.91;10459282;28;1823;-63
2022/06/09 13:06:09;;;;;;;;;;;;;;;22.71;46.56;95542.25;10487916;28;1879;-63
2022/06/09 13:11:11;;;;;;;;;;;;;;;22.71;46.33;95552.81;10484362;28;1796;-61
2022/06/09 13:16:13;;;;;;;;;;;;;;;22.71;46.50;95564.16;10452385;28;1964;-61
2022/06/09 13:21:15;;;;;;;;;;;;;;;22.71;46.57;95566.03;10467154;28;1845;-61
2022/06/09 13:26:17;;;;;;;;;;;;;;;22.71;46.37;95577.34;10463163;28;2106;-61
2022/06/09 13:31:23;;;;;;;;;;;;;;;22.71;46.34;95563.38;10464291;28;1835;-62
2022/06/09 13:36:25;;;;;;;;;;;;;;;22.69;46.31;95573.47;10456541;28;1973;-63
2022/06/09 13:41:33;;;;;;;;;;;;;;;22.70;46.33;95578.44;10465250;28;1819;-60
2022/06/09 13:46:34;;;;;;;;;;;;;;;22.69;46.18;95586.69;10466202;28;1723;-61
2022/06/09 13:51:36;;;;;;;;;;;;;;;22.69;46.51;95584.03;10466381;28;1932;-61
2022/06/09 13:56:37;;;;;;;;;;;;;;;22.67;46.53;95587.72;10458290;28;1986;-64
2022/06/09 14:01:37;;;;;;;;;;;;;;;22.70;46.52;95601.44;10481238;28;1789;-59
2022/06/09 14:06:37;;;;;;;;;;;;;;;22.67;46.64;95598.31;10470347;28;1831;-62
2022/06/09 14:11:38;;;;;;;;;;;;;;;22.69;46.36;95610.47;10455268;28;1780;-61
2022/06/09 14:16:39;;;;;;;;;;;;;;;22.67;46.36;95617.88;10483971;28;1973;-61
2022/06/09 14:21:39;;;;;;;;;;;;;;;22.67;46.43;95623.16;10431432;28;1887;-62
2022/06/09 14:26:40;;;;;;;;;;;;;;;22.67;46.35;95623.16;10442599;28;1853;-58
2022/06/09 14:31:40;;;;;;;;;;;;;;;22.67;46.37;95626.56;10468574;28;1910;-60
2022/06/09 14:36:41;;;;;;;;;;;;;;;22.65;46.65;95616.31;10464377;28;1905;-63
2022/06/09 14:41:42;;;;;;;;;;;;;;;22.64;46.40;95622.69;10460978;28;1814;-63
2022/06/09 14:46:43;;;;;;;;;;;;;;;22.66;46.62;95625.03;10473306;28;1948;-61
2022/06/09 14:51:45;;;;;;;;;;;;;;;22.67;46.45;95628.47;10476317;28;1844;-59
2022/06/09 14:56:45;;;;;;;;;;;;;;;22.66;46.12;95627.66;10477253;28;1905;-59
2022/06/09 15:01:46;;;;;;;;;;;;;;;22.66;46.39;95632.94;10453357;28;2134;-61
2022/06/09 15:06:46;;;;;;;;;;;;;;;22.65;46.52;95640.09;10444762;28;1804;-62
2022/06/09 15:11:47;;;;;;;;;;;;;;;22.64;46.24;95633.25;10482773;28;1820;-62
2022/06/09 15:16:48;;;;;;;;;;;;;;;22.64;46.16;95638.53;10458680;28;2003;-63
2022/06/09 15:21:48;;;;;;;;;;;;;;;22.65;46.15;95652.50;10437660;28;1867;-62
2022/06/09 15:26:49;;;;;;;;;;;;;;;22.64;46.12;95649.09;10467058;28;1852;-60
2022/06/09 15:31:49;;;;;;;;;;;;;;;22.64;45.95;95651.75;10450656;28;1922;-61
2022/06/09 15:36:50;;;;;;;;;;;;;;;22.65;46.22;95657.78;10478780;28;1914;-61
2022/06/09 15:41:51;;;;;;;;;;;;;;;22.65;46.44;95669.16;10456468;28;1855;-60
2022/06/09 15:46:51;;;;;;;;;;;;;;;22.64;46.19;95672.88;10480447;28;1830;-61
2022/06/09 15:51:51;;;;;;;;;;;;;;;22.64;46.03;95672.09;10483607;28;1811;-61
2022/06/09 15:56:51;;;;;;;;;;;;;;;22.63;45.98;95681.88;10478569;28;1913;-60
2022/06/09 16:02:08;;;;;;;;;;;;;;;22.63;45.70;95692.44;10477168;28;1830;-58
2022/06/09 16:07:09;;;;;;;;;;;;;;;22.61;46.04;95684.00;10464588;28;1840;-61
2022/06/09 16:12:10;;;;;;;;;;;;;;;22.62;46.05;95679.50;10471717;28;2142;-62
2022/06/09 16:17:11;;;;;;;;;;;;;;;22.62;45.74;95685.59;10479306;28;1985;-59
2022/06/09 16:22:11;;;;;;;;;;;;;;;22.61;45.90;95691.94;10481163;28;2209;-61
2022/06/09 16:27:11;;;;;;;;;;;;;;;22.60;46.19;95695.66;10469401;28;1856;-61
2022/06/09 16:32:12;;;;;;;;;;;;;;;22.60;45.66;95702.78;10480906;28;1821;-61
2022/06/09 16:37:12;;;;;;;;;;;;;;;22.60;45.79;95711.50;10468590;28;1950;-64
2022/06/09 16:42:13;;;;;;;;;;;;;;;22.59;45.95;95712.56;10455884;28;1878;-62
2022/06/09 16:47:13;;;;;;;;;;;;;;;22.60;45.70;95718.66;10478972;28;2212;-61
2022/06/09 16:52:13;;;;;;;;;;;;;;;22.58;45.89;95718.94;10473077;28;1903;-60
2022/06/09 16:57:14;;;;;;;;;;;;;;;22.59;45.99;95730.28;10478412;28;2229;-61
2022/06/09 17:02:15;;;;;;;;;;;;;;;22.58;45.95;95737.44;10460535;28;2146;-60
2022/06/09 17:07:16;;;;;;;;;;;;;;;22.57;45.81;95746.38;10479406;28;1864;-59
2022/06/09 17:12:16;;;;;;;;;;;;;;;22.57;46.03;95746.38;10473191;28;2016;-58
2022/06/09 17:17:17;;;;;;;;;;;;;;;22.58;45.77;95763.84;10473903;28;1985;-61
2022/06/09 17:22:17;;;;;;;;;;;;;;;22.57;46.09;95758.81;10485008;28;2320;-63
2022/06/09 17:27:18;;;;;;;;;;;;;;;22.57;46.13;95762.25;10484168;28;2013;-60
2022/06/09 17:32:19;;;;;;;;;;;;;;;22.56;45.94;95776.53;10475838;28;2142;-62
2022/06/09 17:37:23;;;;;;;;;;;;;;;22.56;45.78;95776.53;10467331;28;1906;-58
2022/06/09 17:42:24;;;;;;;;;;;;;;;22.55;45.85;95780.22;10472018;28;2071;-62
2022/06/09 17:47:25;;;;;;;;;;;;;;;22.54;46.04;95786.59;10469167;28;1885;-59
2022/06/09 17:52:26;;;;;;;;;;;;;;;22.53;45.88;95795.59;10486480;28;1669;-61
2022/06/09 17:57:26;;;;;;;;;;;;;;;22.54;45.75;95805.09;10476122;28;1905;-61
2022/06/09 18:02:27;;;;;;;;;;;;;;;22.55;46.13;95811.94;10469616;28;1853;-60
2022/06/09 18:07:28;;;;;;;;;;;;;;;22.53;45.91;95819.34;10484849;28;1876;-62
2022/06/09 18:12:32;;;;;;;;;;;;;;;22.52;45.90;95830.97;10469383;28;1811;-62
2022/06/09 18:17:32;;;;;;;;;;;;;;;22.52;45.84;95838.91;10469081;28;2091;-62
2022/06/09 18:22:32;;;;;;;;;;;;;;;22.52;45.95;95849.47;10473737;28;1873;-62
2022/06/09 18:27:33;;;;;;;;;;;;;;;22.52;45.83;95851.34;10473895;28;1892;-64
2022/06/09 18:32:34;;;;;;;;;;;;;;;22.51;45.68;95857.69;10487639;28;1792;-58
2022/06/09 18:37:34;;;;;;;;;;;;;;;22.50;45.91;95871.97;10455174;28;1962;-65
2022/06/09 18:42:40;;;;;;;;;;;;;;;22.50;46.03;95888.59;10452263;28;1958;-61
2022/06/09 18:47:43;;;;;;;;;;;;;;;22.49;45.90;95892.31;10475226;28;1881;-62
2022/06/09 18:52:43;;;;;;;;;;;;;;;22.32;45.82;95897.25;10467580;28;1838;-63
2022/06/09 18:57:44;;;;;;;;;;;;;;;22.17;45.71;95892.16;10487448;28;1906;-60
2022/06/09 19:02:45;;;;;;;;;;;;;;;21.97;46.16;95905.53;10474892;28;2133;-60
2022/06/09 19:07:45;;;;;;;;;;;;;;;21.86;46.25;95909.34;10479479;28;1837;-60
2022/06/09 19:12:46;;;;;;;;;;;;;;;21.69;46.34;95919.47;10459286;28;1755;-61
2022/06/09 19:17:47;;;;;;;;;;;;;;;21.54;46.29;95911.69;10471195;28;2126;-63
2022/06/09 19:22:48;;;;;;;;;;;;;;;21.45;46.51;95927.28;10460562;28;1821;-63
2022/06/09 19:27:49;;;;;;;;;;;;;;;21.46;46.38;95933.38;10488689;28;1926;-60
2022/06/09 19:32:49;;;;;;;;;;;;;;;21.49;46.83;95953.94;10464378;28;1892;-62
2022/06/09 19:37:49;;;;;;;;;;;;;;;21.65;46.48;95971.22;10485481;28;1915;-62
2022/06/09 19:42:50;;;;;;;;;;;;;;;21.77;46.39;95980.38;10484154;28;1754;-62
2022/06/09 19:47:51;;;;;;;;;;;;;;;21.86;46.47;95984.00;10482980;28;1827;-59
2022/06/09 19:52:51;;;;;;;;;;;;;;;21.95;46.74;95972.88;10478841;28;1923;-62
2022/06/09 19:57:52;;;;;;;;;;;;;;;22.01;46.18;95980.47;10487513;28;1930;-61
2022/06/09 20:02:52;;;;;;;;;;;;;;;22.13;45.74;95985.41;10471499;28;1895;-59
2022/06/09 20:07:53;;;;;;;;;;;;;;;22.17;45.39;95995.13;10469766;28;1854;-61
2022/06/09 20:12:55;;;;;;;;;;;;;;;22.19;45.71;96008.84;10491377;28;1864;-62
2022/06/09 20:17:55;;;;;;;;;;;;;;;22.21;45.62;96000.63;10474519;28;1914;-62
2022/06/09 20:22:56;;;;;;;;;;;;;;;22.22;45.47;96008.28;10495390;28;1908;-58
2022/06/09 20:27:57;;;;;;;;;;;;;;;22.21;45.94;96027.84;10469229;28;1848;-62
2022/06/09 20:33:01;;;;;;;;;;;;;;;22.23;45.71;96036.25;10453578;28;1896;-59
2022/06/09 20:38:01;;;;;;;;;;;;;;;22.25;45.72;96035.97;10474207;28;1973;-61
2022/06/09 20:43:02;;;;;;;;;;;;;;;22.26;45.45;96024.34;10487826;28;1832;-59
2022/06/09 20:48:06;;;;;;;;;;;;;;;22.25;45.41;96023.56;10477088;28;1849;-60
2022/06/09 20:53:07;;;;;;;;;;;;;;;22.27;45.48;96041.78;10484107;28;1809;-59
2022/06/09 20:58:07;;;;;;;;;;;;;;;22.26;45.50;96054.19;10470536;28;1969;-59
2022/06/09 21:03:08;;;;;;;;;;;;;;;22.29;45.79;96050.22;10506364;28;2003;-58
2022/06/09 21:08:08;;;;;;;;;;;;;;;22.30;45.83;96052.56;10462414;28;1771;-59
2022/06/09 21:18:30;;;;;;;;;;;;;;;22.30;45.94;96060.47;10491588;28;1957;-57
2022/06/09 21:23:31;;;;;;;;;;;;;;;22.30;45.96;96073.69;10483234;28;1933;-55
2022/06/09 21:28:32;;;;;;;;;;;;;;;22.31;46.08;96077.13;10491569;28;1883;-58
2022/06/09 21:33:33;;;;;;;;;;;;;;;22.29;46.07;96073.97;10504566;28;1710;-59
2022/06/09 21:38:34;;;;;;;;;;;;;;;22.30;45.96;96084.25;10478122;28;1934;-58
2022/06/09 21:43:34;;;;;;;;;;;;;;;22.29;46.38;96087.19;10501942;28;1886;-60
2022/06/09 21:48:35;;;;;;;;;;;;;;;22.30;46.41;96091.38;10503986;28;1792;-58
2022/06/09 21:53:35;;;;;;;;;;;;;;;22.29;46.36;96092.47;10470417;28;1851;-58
2022/06/09 21:58:36;;;;;;;;;;;;;;;22.28;46.06;96102.22;10505939;28;1981;-59
2022/06/09 22:03:36;;;;;;;;;;;;;;;22.27;46.32;96107.78;10497061;28;1750;-55
2022/06/09 22:08:36;;;;;;;;;;;;;;;22.26;46.16;96103.56;10494087;28;1862;-59
2022/06/09 22:13:37;;;;;;;;;;;;;;;22.25;46.22;96113.34;10495052;28;1837;-60
2022/06/09 22:18:37;;;;;;;;;;;;;;;22.24;46.07;96106.50;10489342;28;1910;-58
2022/06/09 22:23:38;;;;;;;;;;;;;;;22.23;46.12;96107.56;10473843;28;1672;-57
2022/06/09 22:28:38;;;;;;;;;;;;;;;22.23;45.96;96104.13;10473080;28;1784;-60
2022/06/09 22:33:39;;;;;;;;;;;;;;;22.23;46.32;96112.84;10489125;28;1765;-57
2022/06/09 22:38:41;;;;;;;;;;;;;;;22.22;46.19;96110.47;10487865;28;2013;-57
2022/06/09 22:43:41;;;;;;;;;;;;;;;22.24;46.37;96113.63;10485532;28;1819;-58
2022/06/09 22:48:41;;;;;;;;;;;;;;;22.21;46.10;96117.63;10490244;28;1741;-59
2022/06/09 22:53:42;;;;;;;;;;;;;;;22.21;46.38;96128.19;10491851;28;2038;-56
2022/06/09 22:58:43;;;;;;;;;;;;;;;22.21;46.15;96122.91;10489947;28;1953;-59
2022/06/09 23:03:44;;;;;;;;;;;;;;;22.23;46.23;96130.53;10475473;28;1703;-59
2022/06/09 23:08:45;;;;;;;;;;;;;;;22.22;46.39;96140.31;10484208;28;1734;-57
2022/06/09 23:13:45;;;;;;;;;;;;;;;22.23;46.58;96141.91;10479632;28;1910;-58
2022/06/09 23:18:46;;;;;;;;;;;;;;;22.22;46.66;96144.78;10468549;28;2138;-59
2022/06/09 23:23:47;;;;;;;;;;;;;;;22.23;46.34;96141.91;10473445;28;1859;-60
2022/06/09 23:28:47;;;;;;;;;;;;;;;22.21;46.52;96133.47;10463755;28;1863;-60
2022/06/09 23:33:47;;;;;;;;;;;;;;;22.21;46.28;96138.75;10497322;28;1801;-57
2022/06/09 23:38:48;;;;;;;;;;;;;;;22.22;46.44;96144.78;10486741;28;2019;-59
2022/06/09 23:43:48;;;;;;;;;;;;;;;22.21;46.38;96148.50;10490744;28;1803;-57
2022/06/09 23:48:48;;;;;;;;;;;;;;;22.22;46.38;96147.44;10473967;28;2321;-59
2022/06/09 23:53:49;;;;;;;;;;;;;;;22.22;46.30;96161.44;10490616;28;1875;-59
2022/06/09 23:58:50;;;;;;;;;;;;;;;22.21;46.24;96148.50;10472460;28;1965;-58
